CDT,Max TemperatureF,Mean TemperatureF,Min TemperatureF,Max Dew PointF,MeanDew PointF,Min DewpointF,Max Humidity, Mean Humidity, Min Humidity, Max Sea Level PressureIn, Mean Sea Level PressureIn, Min Sea Level PressureIn, Max VisibilityMiles, Mean VisibilityMiles, Min VisibilityMiles, Max Wind SpeedMPH, Mean Wind SpeedMPH, Max Gust SpeedMPH,PrecipitationIn, CloudCover, Events, WindDirDegrees
2013-6-1,94,86,78,75,74,73,85,69,52,29.91,29.85,29.81,10,10,10,20,9,28,T,5,,176
2013-6-2,85,76,66,74,68,64,93,72,51,30.01,29.96,29.89,10,7,0,10,5,14,3.98,6,Fog-Rain-Thunderstorm,312
2013-6-3,88,76,63,69,64,61,93,69,45,29.98,29.92,29.86,10,10,6,10,3,14,0.00,1,,60
2013-6-4,90,79,67,71,68,65,93,72,50,29.95,29.89,29.82,10,10,10,13,5,16,0.00,1,,109
2013-6-5,91,80,68,75,71,67,100,78,56,29.92,29.85,29.70,10,10,7,13,2,16,0.00,0,,104
2013-6-6,83,76,68,75,71,66,100,87,74,29.91,29.83,29.71,10,8,0,25,5,33,1.40,6,Fog-Rain-Thunderstorm,30
2013-6-7,86,76,66,68,65,60,100,72,44,29.95,29.90,29.87,10,6,0,10,3,16,0.00,5,Fog,314
2013-6-8,88,76,64,71,66,62,100,73,45,29.94,29.89,29.83,10,10,6,10,3,16,0.00,1,,162
2013-6-9,89,79,69,73,70,67,100,81,61,29.97,29.92,29.86,10,8,0,22,4,30,0.15,3,Fog-Rain-Thunderstorm,151
2013-6-10,93,82,70,75,71,69,100,73,46,30.00,29.97,29.93,10,5,0,12,3,14,0.00,5,Fog,183
2013-6-11,95,85,74,77,74,72,94,72,49,30.06,30.02,29.97,10,9,2,18,3,25,0.01,3,,178
2013-6-12,94,85,75,76,73,70,94,70,46,30.08,30.04,29.96,10,6,1,9,5,12,0.00,4,,169
2013-6-13,96,86,76,78,74,71,94,70,45,30.07,30.00,29.91,10,8,2,9,2,13,0.00,1,,236
2013-6-14,97,86,75,79,75,73,91,70,48,29.98,29.94,29.87,10,10,10,36,3,48,T,1,Thunderstorm,299
2013-6-15,94,84,73,79,73,68,91,74,56,30.00,29.95,29.90,10,10,6,17,3,24,0.03,2,Rain-Thunderstorm,193
2013-6-16,94,85,75,76,73,69,94,70,46,30.05,29.98,29.91,10,10,8,12,5,14,0.00,1,,194
2013-6-17,92,84,76,76,74,70,94,72,49,30.01,29.95,29.87,10,9,5,15,5,20,0.00,2,,209
2013-6-18,90,82,74,75,73,70,94,79,63,29.98,29.94,29.90,10,10,9,17,6,24,T,3,,206
2013-6-19,90,81,72,75,73,71,100,80,59,30.02,29.98,29.94,10,10,9,15,5,20,0.00,4,Thunderstorm,115
2013-6-20,95,84,73,75,73,70,100,73,46,30.09,30.03,29.98,10,7,0,13,5,18,0.00,3,Fog,152
2013-6-21,95,84,72,76,73,69,100,73,46,30.12,30.07,30.01,10,6,0,10,4,15,0.00,3,Fog,154
2013-6-22,95,84,72,75,72,70,94,69,43,30.07,30.02,29.94,10,10,6,13,4,16,0.00,0,,154
2013-6-23,94,83,72,75,72,70,100,75,49,30.05,29.99,29.94,10,9,6,13,6,20,0.00,2,,147
2013-6-24,94,83,72,75,72,69,94,70,46,30.08,30.02,29.96,10,10,7,14,7,18,T,1,,151
2013-6-25,95,85,74,75,74,71,94,72,49,30.07,30.00,29.92,10,9,5,15,8,23,0.00,3,,156
2013-6-26,96,85,74,75,73,70,100,72,43,30.03,29.97,29.90,10,9,5,10,6,13,0.00,3,,180
2013-6-27,96,85,73,75,72,67,100,70,39,30.05,29.98,29.90,10,10,5,9,4,17,0.00,1,,183
2013-6-28,98,86,73,75,73,70,94,67,39,29.96,29.88,29.78,10,10,10,12,4,17,0.00,0,,226
2013-6-29,102,89,75,74,68,61,85,57,29,29.82,29.79,29.73,10,10,10,14,4,21,0.00,0,,319
2013-6-30,95,81,66,66,59,53,87,56,24,29.87,29.82,29.79,10,10,10,16,5,22,0.00,1,,336